Time;durP1;ratioP1;P1;durP2;ratioP2;P2;SDS_P1;SDS_P2;PMS_P1;PMS_P2;Temp;Humidity;BMP_temperature;BMP_pressure;BME280_temperature;BME280_humidity;BME280_pressure;Samples;Min_cycle;Max_cycle;Signal;HPM_P1;HPM_P2
2021/12/31 00:00:46;;;;;;;16.53;16.03;;;21.00;99.90;;;;;;5031195;28;20468;-54
2021/12/31 00:03:14;;;;;;;16.57;16.07;;;21.00;99.90;;;;;;5031268;28;20453;-56
2021/12/31 00:05:41;;;;;;;16.40;15.90;;;21.00;99.90;;;;;;5044345;28;20451;-53
2021/12/31 00:08:07;;;;;;;16.30;15.80;;;21.00;99.90;;;;;;5051223;28;20440;-56
2021/12/31 00:10:34;;;;;;;16.70;16.20;;;21.00;99.90;;;;;;5052442;28;20475;-57
2021/12/31 00:13:01;;;;;;;16.30;15.80;;;21.00;99.90;;;;;;5050077;28;20477;-55
2021/12/31 00:15:27;;;;;;;16.40;15.90;;;21.00;99.90;;;;;;5035351;28;20444;-51
2021/12/31 00:17:54;;;;;;;16.17;15.67;;;21.00;99.90;;;;;;5035397;28;20452;-55
2021/12/31 00:20:24;;;;;;;16.60;16.10;;;21.00;99.90;;;;;;5035053;28;20469;-53
2021/12/31 00:23:06;;;;;;;16.60;16.10;;;21.00;99.90;;;;;;5034987;28;20825;-55
2021/12/31 00:25:34;;;;;;;16.30;15.80;;;20.90;99.90;;;;;;5035211;28;20913;-55
2021/12/31 00:28:01;;;;;;;16.40;15.90;;;20.90;99.90;;;;;;5035106;28;20440;-53
2021/12/31 00:30:28;;;;;;;16.70;16.20;;;20.90;99.90;;;;;;5034962;28;20471;-58
2021/12/31 00:32:55;;;;;;;16.67;16.17;;;20.90;99.90;;;;;;5048456;28;20836;-57
2021/12/31 00:35:23;;;;;;;16.60;16.10;;;20.90;99.90;;;;;;5054891;28;20884;-54
2021/12/31 00:37:50;;;;;;;16.60;16.10;;;20.90;99.90;;;;;;5054947;28;20960;-51
2021/12/31 00:40:18;;;;;;;16.40;15.90;;;20.90;99.90;;;;;;5054674;28;20981;-56
2021/12/31 00:42:45;;;;;;;16.40;15.90;;;20.90;99.90;;;;;;5054514;28;20440;-55
2021/12/31 00:45:15;;;;;;;16.43;15.93;;;20.80;99.90;;;;;;5054015;28;20448;-60
2021/12/31 00:47:42;;;;;;;16.83;16.23;;;20.80;99.90;;;;;;5054696;28;20865;-56
2021/12/31 00:50:09;;;;;;;16.70;16.10;;;20.80;99.90;;;;;;5054261;28;20479;-51
2021/12/31 00:52:38;;;;;;;16.83;16.33;;;20.80;99.90;;;;;;5054294;28;20484;-56
2021/12/31 00:55:06;;;;;;;16.70;16.20;;;20.80;99.90;;;;;;5053831;28;20440;-56
2021/12/31 00:57:33;;;;;;;16.77;16.17;;;20.80;99.90;;;;;;5034485;28;20437;-55
2021/12/31 01:00:00;;;;;;;16.50;16.00;;;20.80;99.90;;;;;;5034434;28;20832;-54
2021/12/31 01:02:28;;;;;;;17.00;16.40;;;20.80;99.90;;;;;;5034361;28;20453;-53
2021/12/31 01:04:55;;;;;;;17.10;16.60;;;20.80;99.90;;;;;;5034473;28;20510;-57
2021/12/31 01:07:22;;;;;;;16.73;16.23;;;20.80;99.90;;;;;;5034700;28;20974;-54
2021/12/31 01:09:50;;;;;;;17.10;16.50;;;20.80;99.90;;;;;;5053973;28;20892;-53
2021/12/31 01:12:17;;;;;;;16.63;16.13;;;20.80;99.90;;;;;;5053904;28;20480;-51
2021/12/31 01:14:54;;;;;;;16.37;15.87;;;20.70;99.90;;;;;;5054008;28;20952;-57
2021/12/31 01:17:24;;;;;;;16.00;15.50;;;20.70;99.90;;;;;;5054254;28;20447;-53
2021/12/31 01:19:50;;;;;;;16.60;16.10;;;20.70;99.90;;;;;;5050903;28;20818;-53
2021/12/31 01:22:19;;;;;;;16.60;16.10;;;20.70;99.90;;;;;;5033367;28;20440;-51
2021/12/31 01:24:46;;;;;;;16.57;16.07;;;20.70;99.90;;;;;;5034008;28;20445;-52
2021/12/31 01:27:15;;;;;;;16.50;16.00;;;20.70;99.90;;;;;;5034145;28;20445;-52
2021/12/31 01:29:42;;;;;;;16.70;16.20;;;20.70;99.90;;;;;;5033911;28;20836;-56
2021/12/31 01:32:09;;;;;;;16.80;16.30;;;20.70;99.90;;;;;;5040861;28;20460;-58
2021/12/31 01:34:37;;;;;;;16.43;15.93;;;20.70;99.90;;;;;;5053819;28;20452;-57
2021/12/31 01:37:04;;;;;;;16.93;16.43;;;20.70;99.90;;;;;;5053911;28;20443;-52
2021/12/31 01:39:31;;;;;;;16.80;16.30;;;20.70;99.90;;;;;;5053628;28;20460;-55
2021/12/31 01:41:59;;;;;;;16.77;16.13;;;20.70;99.90;;;;;;5053506;28;20440;-57
2021/12/31 01:44:35;;;;;;;16.60;16.10;;;20.70;99.90;;;;;;5041305;28;20576;-55
2021/12/31 01:47:08;;;;;;;16.80;16.30;;;20.70;99.90;;;;;;5033646;28;20835;-53
2021/12/31 01:49:37;;;;;;;16.50;16.00;;;20.70;99.90;;;;;;5033554;28;20473;-54
2021/12/31 01:52:06;;;;;;;16.83;16.23;;;20.70;99.90;;;;;;5033275;28;20503;-53
2021/12/31 01:54:34;;;;;;;16.53;16.03;;;20.70;99.90;;;;;;5033787;28;20449;-53
2021/12/31 01:57:02;;;;;;;16.53;16.03;;;20.60;99.90;;;;;;5051956;28;20448;-54
2021/12/31 01:59:31;;;;;;;16.77;16.27;;;20.60;99.90;;;;;;5053177;28;20988;-52
2021/12/31 02:01:59;;;;;;;16.70;16.10;;;20.60;99.90;;;;;;5053082;28;20455;-55
2021/12/31 02:04:25;;;;;;;17.10;16.40;;;20.60;99.90;;;;;;5053191;28;20447;-54
2021/12/31 02:06:52;;;;;;;17.30;16.60;;;20.60;99.90;;;;;;5051063;28;20444;-53
2021/12/31 02:09:19;;;;;;;16.20;15.70;;;20.60;99.90;;;;;;5033708;28;20477;-58
2021/12/31 02:11:46;;;;;;;16.30;15.80;;;20.60;99.90;;;;;;5033098;28;20962;-57
2021/12/31 02:14:12;;;;;;;16.20;15.70;;;20.60;99.90;;;;;;5033053;28;20481;-57
2021/12/31 02:16:41;;;;;;;16.30;15.80;;;20.60;99.90;;;;;;5046707;28;20471;-58
2021/12/31 02:19:14;;;;;;;16.40;15.90;;;20.60;99.90;;;;;;5052938;28;20472;-57
2021/12/31 02:21:45;;;;;;;16.40;15.90;;;20.60;99.90;;;;;;5052855;28;20444;-57
2021/12/31 02:24:12;;;;;;;16.53;16.03;;;20.60;99.90;;;;;;5052905;28;20925;-59
2021/12/31 02:26:39;;;;;;;16.20;15.70;;;20.50;99.90;;;;;;5039094;28;20452;-58
2021/12/31 02:29:06;;;;;;;16.50;16.00;;;20.60;99.90;;;;;;5032954;28;20473;-59
2021/12/31 02:31:33;;;;;;;16.50;15.90;;;20.60;99.90;;;;;;5032593;28;20453;-58
2021/12/31 02:34:00;;;;;;;16.60;16.10;;;20.60;99.90;;;;;;5032905;28;20481;-59
2021/12/31 02:36:27;;;;;;;16.30;15.80;;;20.60;99.90;;;;;;5032769;28;20445;-58
2021/12/31 02:38:55;;;;;;;16.47;15.97;;;20.50;99.90;;;;;;5032505;28;20465;-57
2021/12/31 02:41:21;;;;;;;16.63;16.13;;;20.60;99.90;;;;;;5032704;28;20441;-57
2021/12/31 02:43:48;;;;;;;16.30;15.80;;;20.50;99.90;;;;;;5039366;28;20848;-58
2021/12/31 02:46:15;;;;;;;16.10;15.60;;;20.50;99.90;;;;;;5052438;28;20452;-56
2021/12/31 02:48:43;;;;;;;16.30;15.80;;;20.50;99.90;;;;;;5052430;28;20491;-59
2021/12/31 02:51:10;;;;;;;16.10;15.60;;;20.50;99.90;;;;;;5052458;28;20448;-57
2021/12/31 02:53:38;;;;;;;16.50;16.00;;;20.50;99.90;;;;;;5052095;28;20487;-56
2021/12/31 02:56:08;;;;;;;16.30;15.80;;;20.50;99.90;;;;;;5045334;28;20453;-59
2021/12/31 02:58:35;;;;;;;16.50;16.00;;;20.50;99.90;;;;;;5032395;28;20445;-58
2021/12/31 03:01:03;;;;;;;16.40;15.90;;;20.50;99.90;;;;;;5032271;28;20854;-57
2021/12/31 03:03:31;;;;;;;16.50;16.00;;;20.50;99.90;;;;;;5031929;28;21042;-58
2021/12/31 03:05:58;;;;;;;16.10;15.60;;;20.50;99.90;;;;;;5032303;28;20809;-55
2021/12/31 03:08:29;;;;;;;16.77;16.17;;;20.50;99.90;;;;;;5040635;28;20502;-56
2021/12/31 03:10:57;;;;;;;16.30;15.80;;;20.50;99.90;;;;;;5052064;28;20441;-57
2021/12/31 03:13:26;;;;;;;16.40;15.80;;;20.50;99.90;;;;;;5051941;28;20480;-56
2021/12/31 03:15:53;;;;;;;16.10;15.60;;;20.50;99.90;;;;;;5052302;28;20448;-56
2021/12/31 03:18:21;;;;;;;16.00;15.50;;;20.50;99.90;;;;;;5051974;28;20440;-58
2021/12/31 03:20:57;;;;;;;15.90;15.40;;;20.50;99.90;;;;;;5038606;28;20445;-58
2021/12/31 03:23:24;;;;;;;15.90;15.40;;;20.50;99.90;;;;;;5031772;28;20643;-58
2021/12/31 03:25:51;;;;;;;15.97;15.47;;;20.50;99.90;;;;;;5032000;28;20457;-59
2021/12/31 03:28:18;;;;;;;16.10;15.60;;;20.50;99.90;;;;;;5032027;28;20445;-57
2021/12/31 03:30:46;;;;;;;16.17;15.67;;;20.50;99.90;;;;;;5031934;28;20540;-58
2021/12/31 03:33:13;;;;;;;16.93;16.40;;;20.50;99.90;;;;;;5046090;28;20883;-58
2021/12/31 03:35:39;;;;;;;16.60;16.10;;;20.50;99.90;;;;;;5051804;28;20939;-58
2021/12/31 03:38:06;;;;;;;17.00;16.50;;;20.50;99.90;;;;;;5051805;28;20448;-55
2021/12/31 03:40:33;;;;;;;16.07;15.57;;;20.50;99.90;;;;;;5051623;28;20460;-58
2021/12/31 03:43:00;;;;;;;16.60;16.10;;;20.50;99.90;;;;;;5051710;28;20444;-57
2021/12/31 03:45:27;;;;;;;16.40;15.90;;;20.50;99.90;;;;;;5036436;28;20445;-56
2021/12/31 03:47:55;;;;;;;17.13;16.63;;;20.50;99.90;;;;;;5031796;28;20488;-59
2021/12/31 03:50:22;;;;;;;16.37;15.87;;;20.40;99.90;;;;;;5031849;28;20548;-60
2021/12/31 03:52:49;;;;;;;16.53;16.03;;;20.40;99.90;;;;;;5037285;28;20449;-59
2021/12/31 03:55:16;;;;;;;17.07;16.57;;;20.40;99.90;;;;;;5051495;28;20961;-59
2021/12/31 03:57:42;;;;;;;17.00;16.50;;;20.40;99.90;;;;;;5051582;28;20452;-60
2021/12/31 04:00:11;;;;;;;17.07;16.47;;;20.40;99.90;;;;;;5051377;28;20464;-60
2021/12/31 04:02:38;;;;;;;16.30;15.80;;;20.40;99.90;;;;;;5046645;28;20451;-59
2021/12/31 04:05:07;;;;;;;16.70;16.20;;;20.40;99.90;;;;;;5031500;28;20809;-57
2021/12/31 04:07:34;;;;;;;16.70;16.20;;;20.40;99.90;;;;;;5031468;28;20452;-59
2021/12/31 04:10:00;;;;;;;16.77;16.27;;;20.40;99.90;;;;;;5031418;28;20828;-59
2021/12/31 04:12:27;;;;;;;16.80;16.30;;;20.40;99.90;;;;;;5031230;28;20445;-60
2021/12/31 04:14:54;;;;;;;16.97;16.43;;;20.40;99.90;;;;;;5038981;28;20467;-58
2021/12/31 04:17:20;;;;;;;17.10;16.50;;;20.40;99.90;;;;;;5051429;28;20444;-58
2021/12/31 04:19:51;;;;;;;16.50;16.00;;;20.40;99.90;;;;;;5051262;28;20467;-60
2021/12/31 04:22:21;;;;;;;16.70;16.10;;;20.40;99.90;;;;;;5051321;28;20466;-58
2021/12/31 04:24:53;;;;;;;16.80;16.30;;;20.40;99.90;;;;;;5051426;28;20482;-59
2021/12/31 04:27:22;;;;;;;16.73;16.23;;;20.40;99.90;;;;;;5039763;28;20449;-59
2021/12/31 04:32:32;;;;;;;17.03;16.43;;;20.40;99.90;;;;;;5030531;28;20440;-58
2021/12/31 04:37:55;;;;;;;16.93;16.40;;;20.40;99.90;;;;;;5030710;28;20467;-58
2021/12/31 04:40:22;;;;;;;16.60;16.10;;;20.40;99.90;;;;;;5029331;28;20500;-59
2021/12/31 04:42:50;;;;;;;16.27;15.77;;;20.40;99.90;;;;;;5031122;28;20506;-58
2021/12/31 04:45:17;;;;;;;16.43;15.93;;;20.40;99.90;;;;;;5031489;28;20452;-58
2021/12/31 04:47:44;;;;;;;16.50;16.00;;;20.40;99.90;;;;;;5031284;28;20449;-55
2021/12/31 04:52:52;;;;;;;16.80;16.30;;;20.40;99.90;;;;;;5050236;28;20483;-55
2021/12/31 04:58:01;;;;;;;16.83;16.23;;;20.40;99.90;;;;;;5053913;28;20436;-59
2021/12/31 05:03:09;;;;;;;17.17;16.57;;;20.40;99.90;;;;;;5038779;28;20460;-57
2021/12/31 05:05:37;;;;;;;17.57;17.00;;;20.40;99.90;;;;;;5034624;28;20444;-59
2021/12/31 05:08:05;;;;;;;17.13;16.63;;;20.40;99.90;;;;;;5034548;28;20455;-58
2021/12/31 05:10:33;;;;;;;16.70;16.10;;;20.40;99.90;;;;;;5034421;28;20476;-57
2021/12/31 05:15:45;;;;;;;16.90;16.40;;;20.40;99.90;;;;;;5035796;28;20955;-59
2021/12/31 05:18:12;;;;;;;17.43;16.83;;;20.40;99.90;;;;;;5034387;28;20885;-56
2021/12/31 05:20:39;;;;;;;16.83;16.33;;;20.40;99.90;;;;;;5034291;28;20465;-58
2021/12/31 05:23:06;;;;;;;17.40;16.80;;;20.40;99.90;;;;;;5034165;28;20867;-59
2021/12/31 05:25:49;;;;;;;16.93;16.43;;;20.40;99.90;;;;;;5035301;28;20437;-54
2021/12/31 05:28:16;;;;;;;17.57;16.97;;;20.40;99.90;;;;;;5053426;28;20964;-59
2021/12/31 05:30:43;;;;;;;17.30;16.80;;;20.40;99.90;;;;;;5053948;28;20464;-58
2021/12/31 05:33:09;;;;;;;17.37;16.83;;;20.40;99.90;;;;;;5033748;28;20457;-55
2021/12/31 05:35:36;;;;;;;17.63;17.10;;;20.40;99.90;;;;;;5034019;28;20449;-58
2021/12/31 05:40:43;;;;;;;17.87;17.23;;;20.40;99.90;;;;;;5053217;28;20463;-57
2021/12/31 05:43:40;;;;;;;17.50;16.90;;;20.40;99.90;;;;;;5053507;28;20444;-58
2021/12/31 05:46:22;;;;;;;17.37;16.87;;;20.40;99.90;;;;;;5053269;28;20843;-58
2021/12/31 05:48:49;;;;;;;17.40;16.90;;;20.40;99.90;;;;;;5052982;28;20463;-57
2021/12/31 05:51:16;;;;;;;16.80;16.30;;;20.40;99.90;;;;;;5040968;28;20814;-52
2021/12/31 05:53:42;;;;;;;16.90;16.30;;;20.40;99.90;;;;;;5034856;28;20477;-57
2021/12/31 05:56:09;;;;;;;16.50;16.00;;;20.40;99.90;;;;;;5033594;28;20548;-59
2021/12/31 06:03:58;;;;;;;16.83;16.33;;;20.50;99.90;;;;;;5052188;28;20440;-57
2021/12/31 06:06:25;;;;;;;17.47;16.87;;;20.50;99.90;;;;;;5053442;28;20444;-57
2021/12/31 06:11:33;;;;;;;17.90;17.30;;;20.50;99.90;;;;;;5052543;28;20443;-56
2021/12/31 06:14:03;;;;;;;17.50;16.90;;;20.50;99.90;;;;;;5050223;28;20476;-57
2021/12/31 06:21:55;;;;;;;17.23;16.73;;;20.50;99.90;;;;;;5032459;28;20441;-58
2021/12/31 06:24:22;;;;;;;17.20;16.70;;;20.50;99.90;;;;;;5032987;28;20842;-57
2021/12/31 06:29:29;;;;;;;17.40;16.80;;;20.50;99.90;;;;;;5052214;28;21131;-58
2021/12/31 06:34:39;;;;;;;17.10;16.60;;;20.50;99.90;;;;;;5052542;28;20822;-53
2021/12/31 06:37:05;;;;;;;17.37;16.77;;;20.60;99.90;;;;;;5053361;28;20444;-56
2021/12/31 06:39:34;;;;;;;17.00;16.50;;;20.60;99.90;;;;;;5038346;28;20735;-56
2021/12/31 06:44:42;;;;;;;17.00;16.50;;;20.60;99.90;;;;;;5032154;28;20514;-55
2021/12/31 06:49:51;;;;;;;17.20;16.60;;;20.70;99.90;;;;;;5033555;28;20461;-57
2021/12/31 06:52:17;;;;;;;17.00;16.50;;;20.70;99.90;;;;;;5052301;28;20809;-58
2021/12/31 06:54:44;;;;;;;17.07;16.50;;;20.70;99.90;;;;;;5052557;28;20487;-57
2021/12/31 06:57:11;;;;;;;17.30;16.80;;;20.70;99.90;;;;;;5052863;28;20440;-57
2021/12/31 06:59:37;;;;;;;17.20;16.70;;;20.80;99.90;;;;;;5052382;28;20464;-54
2021/12/31 07:02:04;;;;;;;17.80;17.20;;;20.80;99.90;;;;;;5051905;28;20964;-58
2021/12/31 07:04:31;;;;;;;18.00;17.40;;;20.80;99.90;;;;;;5054624;28;20447;-54
2021/12/31 07:07:01;;;;;;;17.70;17.00;;;20.80;99.90;;;;;;5052899;28;20448;-56
2021/12/31 07:12:09;;;;;;;16.93;16.33;;;20.90;99.90;;;;;;5052592;28;20496;-52
2021/12/31 07:14:36;;;;;;;16.47;15.97;;;20.90;99.90;;;;;;5049634;28;20472;-51
2021/12/31 07:17:03;;;;;;;15.17;14.70;;;20.90;99.90;;;;;;5033449;28;20456;-50
2021/12/31 07:19:29;;;;;;;15.33;14.93;;;20.90;99.90;;;;;;5033282;28;20471;-50
2021/12/31 07:21:56;;;;;;;15.80;15.40;;;20.90;99.90;;;;;;5032312;28;20449;-54
2021/12/31 07:24:39;;;;;;;15.50;15.07;;;20.90;99.90;;;;;;5034052;28;20460;-54
2021/12/31 07:27:06;;;;;;;15.50;15.10;;;21.00;99.90;;;;;;5037970;28;20455;-54
2021/12/31 07:29:33;;;;;;;15.80;15.30;;;20.90;99.90;;;;;;5053223;28;20467;-52
2021/12/31 07:31:59;;;;;;;15.13;14.73;;;21.00;99.90;;;;;;5053205;28;20826;-59
2021/12/31 07:34:26;;;;;;;15.30;14.80;;;21.00;99.90;;;;;;5054808;28;20483;-55
2021/12/31 07:36:53;;;;;;;15.30;14.90;;;21.00;99.90;;;;;;5052730;28;20497;-60
2021/12/31 07:39:23;;;;;;;16.20;15.70;;;21.00;99.90;;;;;;5031282;28;20481;-56
2021/12/31 07:44:32;;;;;;;16.10;15.60;;;21.00;99.90;;;;;;5021599;28;20495;-53
2021/12/31 07:46:59;;;;;;;15.57;15.07;;;21.00;99.90;;;;;;5024429;28;20441;-55
2021/12/31 07:49:26;;;;;;;15.13;14.73;;;20.90;99.90;;;;;;5032965;28;20514;-57
2021/12/31 07:51:53;;;;;;;15.73;15.23;;;21.00;99.90;;;;;;5046239;28;20804;-56
2021/12/31 07:54:19;;;;;;;15.60;15.20;;;21.00;99.90;;;;;;5043036;28;20837;-54
2021/12/31 07:56:47;;;;;;;16.50;16.00;;;21.00;99.90;;;;;;5043942;28;20459;-54
2021/12/31 07:59:15;;;;;;;15.50;15.00;;;21.00;99.90;;;;;;5044856;28;20467;-56
2021/12/31 08:04:22;;;;;;;16.15;15.65;;;21.00;99.90;;;;;;5021666;28;20894;-54
2021/12/31 08:07:09;;;;;;;15.63;15.23;;;21.00;99.90;;;;;;5023372;28;20210;-55
2021/12/31 08:09:35;;;;;;;16.60;16.10;;;21.00;99.90;;;;;;5022823;28;20575;-54
2021/12/31 08:14:44;;;;;;;16.27;15.77;;;21.00;99.90;;;;;;4999279;28;20489;-54
2021/12/31 08:17:11;;;;;;;15.87;15.37;;;21.00;99.90;;;;;;5005375;28;20916;-55
2021/12/31 08:19:38;;;;;;;15.20;14.80;;;21.00;99.90;;;;;;5027877;28;20478;-56
2021/12/31 08:22:05;;;;;;;13.90;13.50;;;21.00;99.90;;;;;;5038134;28;20447;-55
2021/12/31 08:24:31;;;;;;;15.70;15.20;;;21.10;99.90;;;;;;5038713;28;20450;-56
2021/12/31 08:29:39;;;;;;;16.07;15.57;;;21.20;99.90;;;;;;5038295;28;20456;-53
2021/12/31 08:32:22;;;;;;;15.30;14.90;;;21.20;99.90;;;;;;5040666;28;20451;-53
2021/12/31 08:34:50;;;;;;;14.10;13.70;;;21.10;99.90;;;;;;5034963;28;20486;-57
2021/12/31 08:37:16;;;;;;;14.10;13.70;;;21.10;99.90;;;;;;5022295;28;20447;-55
2021/12/31 08:39:44;;;;;;;15.83;15.33;;;21.20;99.90;;;;;;5023088;28;20231;-57
2021/12/31 08:44:51;;;;;;;15.53;15.13;;;21.40;99.90;;;;;;5027648;28;20443;-53
2021/12/31 08:50:00;;;;;;;15.20;14.80;;;21.60;99.90;;;;;;5042329;28;20459;-55
2021/12/31 08:52:26;;;;;;;13.65;13.25;;;21.70;99.90;;;;;;5041628;28;20509;-55
2021/12/31 08:54:54;;;;;;;15.03;14.63;;;21.80;99.90;;;;;;5037566;28;20229;-54
2021/12/31 08:57:21;;;;;;;14.32;13.93;;;22.00;99.90;;;;;;5022271;28;20464;-53
2021/12/31 08:59:47;;;;;;;15.70;15.30;;;22.20;99.90;;;;;;5022365;28;20233;-53
2021/12/31 09:02:14;;;;;;;15.00;14.60;;;22.40;99.90;;;;;;5022378;28;20441;-55
2021/12/31 09:04:41;;;;;;;14.77;14.37;;;22.50;99.90;;;;;;5022464;28;20935;-55
2021/12/31 09:07:09;;;;;;;15.13;14.67;;;22.70;99.90;;;;;;5022432;28;20456;-54
2021/12/31 09:09:35;;;;;;;14.50;14.10;;;22.70;99.90;;;;;;5022409;28;20484;-53
2021/12/31 09:12:02;;;;;;;15.50;15.00;;;22.80;99.90;;;;;;5022195;28;20691;-57
2021/12/31 09:14:29;;;;;;;15.00;14.60;;;22.80;99.80;;;;;;5022411;28;20926;-62
2021/12/31 09:16:57;;;;;;;15.43;15.03;;;22.90;99.30;;;;;;5022345;28;20448;-61
2021/12/31 09:19:24;;;;;;;15.60;15.10;;;22.90;98.90;;;;;;5034126;28;21012;-59
2021/12/31 09:21:50;;;;;;;16.10;15.70;;;23.00;98.60;;;;;;5041981;28;20458;-55
2021/12/31 09:24:18;;;;;;;14.90;14.50;;;23.00;98.10;;;;;;5042007;28;20444;-56
2021/12/31 09:26:45;;;;;;;15.60;15.20;;;23.10;97.90;;;;;;5041839;28;20452;-56
2021/12/31 09:29:12;;;;;;;16.30;15.80;;;23.10;97.50;;;;;;5041890;28;20468;-54
2021/12/31 09:31:38;;;;;;;16.67;15.97;;;23.10;97.50;;;;;;5030091;28;20545;-56
2021/12/31 09:34:05;;;;;;;16.90;16.20;;;23.30;98.00;;;;;;5028865;28;20452;-57
2021/12/31 09:36:32;;;;;;;18.77;17.97;;;23.50;97.90;;;;;;5041582;28;20490;-57
2021/12/31 09:38:58;;;;;;;17.13;16.43;;;23.60;97.40;;;;;;5041724;28;20472;-58
2021/12/31 09:41:26;;;;;;;17.63;16.70;;;23.70;96.90;;;;;;5042063;28;20448;-62
2021/12/31 09:43:54;;;;;;;19.70;18.40;;;23.80;96.80;;;;;;5026963;28;20818;-58
2021/12/31 09:46:21;;;;;;;19.57;18.03;;;24.00;98.40;;;;;;5022489;28;20444;-55
2021/12/31 09:48:48;;;;;;;20.33;18.93;;;24.00;99.60;;;;;;5021748;28;20461;-58
2021/12/31 09:51:15;;;;;;;20.63;19.13;;;24.10;99.90;;;;;;5021862;28;20980;-57
2021/12/31 09:53:42;;;;;;;19.97;18.87;;;24.10;99.90;;;;;;5021504;28;20449;-56
2021/12/31 09:56:09;;;;;;;17.63;16.90;;;24.10;99.90;;;;;;5022181;28;20829;-56
2021/12/31 09:58:37;;;;;;;18.67;17.40;;;24.10;99.90;;;;;;5041431;28;20448;-59
2021/12/31 10:01:07;;;;;;;19.50;18.40;;;24.20;99.90;;;;;;5041423;28;20453;-56
2021/12/31 10:03:36;;;;;;;18.87;17.67;;;24.40;99.90;;;;;;5041046;28;20452;-56
2021/12/31 10:06:07;;;;;;;20.30;18.97;;;24.50;99.90;;;;;;5041179;28;20973;-57
2021/12/31 10:08:40;;;;;;;19.60;18.23;;;24.60;99.90;;;;;;5034195;28;20807;-58
2021/12/31 10:11:10;;;;;;;20.93;18.90;;;24.70;99.40;;;;;;5021194;28;21164;-58
2021/12/31 10:13:40;;;;;;;18.13;17.20;;;24.80;98.50;;;;;;5020975;28;20495;-58
2021/12/31 10:16:07;;;;;;;19.17;17.90;;;24.80;98.00;;;;;;5021037;28;20935;-56
2021/12/31 10:18:36;;;;;;;19.90;18.80;;;24.80;97.90;;;;;;5020947;28;20455;-60
2021/12/31 10:21:03;;;;;;;20.30;18.50;;;24.80;97.30;;;;;;5021063;28;20457;-59
2021/12/31 10:23:30;;;;;;;18.47;17.37;;;24.90;97.20;;;;;;5021067;28;20453;-57
2021/12/31 10:26:11;;;;;;;19.53;18.03;;;24.90;96.80;;;;;;5020984;28;20449;-59
2021/12/31 10:28:52;;;;;;;17.40;16.33;;;24.90;96.30;;;;;;5021270;28;20935;-60
2021/12/31 10:31:19;;;;;;;19.50;17.90;;;24.90;95.80;;;;;;5021116;28;20449;-59
2021/12/31 10:33:48;;;;;;;19.37;17.80;;;24.90;95.30;;;;;;5020702;28;20920;-58
2021/12/31 10:36:34;;;;;;;18.13;16.83;;;25.00;94.90;;;;;;5020776;28;20488;-60
2021/12/31 10:39:04;;;;;;;17.03;16.33;;;25.00;94.60;;;;;;5020741;28;20471;-59
2021/12/31 10:41:31;;;;;;;16.90;15.97;;;25.10;94.40;;;;;;5020596;28;20459;-57
2021/12/31 10:44:00;;;;;;;16.67;15.97;;;25.20;93.70;;;;;;5020638;28;20805;-60
2021/12/31 10:46:27;;;;;;;17.40;16.30;;;25.20;93.20;;;;;;5020564;28;20764;-58
2021/12/31 10:48:56;;;;;;;16.73;15.93;;;25.30;92.80;;;;;;5020331;28;20473;-59
2021/12/31 10:51:38;;;;;;;16.70;15.90;;;25.30;92.40;;;;;;5020504;28;20457;-60
2021/12/31 10:54:27;;;;;;;17.43;16.63;;;25.40;91.90;;;;;;5019679;28;20540;-61
2021/12/31 10:56:54;;;;;;;17.30;16.50;;;25.40;91.50;;;;;;5020411;28;20495;-60
2021/12/31 10:59:22;;;;;;;18.83;17.83;;;25.40;91.10;;;;;;5033018;28;20498;-61
2021/12/31 11:01:49;;;;;;;18.00;17.00;;;25.40;90.80;;;;;;5031881;28;20452;-59
2021/12/31 11:04:20;;;;;;;18.57;17.67;;;25.50;90.50;;;;;;5040022;28;20469;-61
2021/12/31 11:06:47;;;;;;;18.23;17.43;;;25.50;90.60;;;;;;5040247;28;20882;-59
2021/12/31 11:09:16;;;;;;;18.70;17.63;;;25.50;90.70;;;;;;5040033;28;21091;-63
2021/12/31 11:11:44;;;;;;;25.37;23.10;;;25.50;90.60;;;;;;5031764;28;20949;-61
2021/12/31 11:14:11;;;;;;;31.53;28.17;;;25.50;90.40;;;;;;5020011;28;20832;-58
2021/12/31 11:16:40;;;;;;;26.53;24.20;;;25.50;90.50;;;;;;5019903;28;20488;-61
2021/12/31 11:19:08;;;;;;;28.23;25.57;;;25.50;90.60;;;;;;5020047;28;20473;-60
2021/12/31 11:21:36;;;;;;;27.53;24.90;;;25.60;90.40;;;;;;5020959;28;20534;-60
2021/12/31 11:24:28;;;;;;;34.87;30.60;;;25.60;90.10;;;;;;5020112;28;20480;-59
2021/12/31 11:26:55;;;;;;;29.40;26.30;;;25.70;89.80;;;;;;5020582;28;20559;-60
2021/12/31 11:29:22;;;;;;;30.30;26.43;;;25.70;89.20;;;;;;5039955;28;20471;-61
2021/12/31 11:31:51;;;;;;;17.57;16.63;;;25.70;88.50;;;;;;5039523;28;20447;-56
2021/12/31 11:34:19;;;;;;;16.67;16.07;;;25.80;84.80;;;;;;5039781;28;20455;-59
2021/12/31 11:36:51;;;;;;;17.00;16.30;;;25.70;76.30;;;;;;5038980;28;20956;-54
2021/12/31 11:39:24;;;;;;;17.50;16.73;;;25.20;64.00;;;;;;5019681;28;20475;-54
2021/12/31 11:41:53;;;;;;;16.30;15.70;;;24.70;64.40;;;;;;5039489;28;20463;-57
2021/12/31 11:44:24;;;;;;;15.63;15.13;;;24.30;64.40;;;;;;5039813;28;20876;-55
2021/12/31 11:46:52;;;;;;;16.50;16.00;;;24.10;66.90;;;;;;5039041;28;20998;-57
2021/12/31 11:49:21;;;;;;;16.20;15.70;;;23.90;65.70;;;;;;5020785;28;20464;-57
2021/12/31 11:52:08;;;;;;;15.40;14.90;;;23.60;67.30;;;;;;5016719;28;20452;-59
2021/12/31 11:54:39;;;;;;;15.30;14.80;;;23.40;66.50;;;;;;5001604;28;20457;-52
2021/12/31 11:57:19;;;;;;;16.10;15.50;;;23.30;68.10;;;;;;5005498;28;20495;-54
2021/12/31 11:59:52;;;;;;;13.75;13.27;;;23.00;68.80;;;;;;5018381;28;20777;-57
2021/12/31 12:02:33;;;;;;;15.93;15.43;;;23.00;69.70;;;;;;5019336;28;20635;-56
2021/12/31 12:05:08;;;;;;;15.67;15.17;;;22.90;69.40;;;;;;5020067;28;20814;-52
2021/12/31 12:07:37;;;;;;;16.57;16.07;;;22.80;68.40;;;;;;5023800;28;20772;-55
2021/12/31 12:10:17;;;;;;;15.70;15.20;;;22.70;69.70;;;;;;5023320;28;20484;-57
2021/12/31 12:12:49;;;;;;;15.10;14.60;;;22.70;70.80;;;;;;5023626;28;20449;-58
2021/12/31 12:15:29;;;;;;;15.27;14.77;;;22.70;70.50;;;;;;5023373;28;20488;-60
2021/12/31 12:17:58;;;;;;;14.77;14.37;;;22.70;70.70;;;;;;5023540;28;20481;-56
2021/12/31 12:20:34;;;;;;;14.83;14.33;;;22.50;70.00;;;;;;5023210;28;20508;-56
2021/12/31 12:23:02;;;;;;;15.03;14.53;;;22.50;72.20;;;;;;5023498;28;20445;-55
2021/12/31 12:25:31;;;;;;;14.93;14.53;;;22.60;70.80;;;;;;5023317;28;20449;-59
2021/12/31 12:28:01;;;;;;;15.50;14.90;;;22.50;71.50;;;;;;5023110;28;20441;-60
2021/12/31 12:30:28;;;;;;;15.00;14.40;;;22.70;72.10;;;;;;5023320;28;20469;-52
2021/12/31 12:33:08;;;;;;;13.90;13.40;;;22.60;70.70;;;;;;5038191;28;20455;-52
2021/12/31 12:35:37;;;;;;;14.77;14.27;;;22.50;70.30;;;;;;5031162;28;20994;-55
2021/12/31 12:38:06;;;;;;;13.60;13.10;;;22.50;71.60;;;;;;5024032;28;20977;-58
2021/12/31 12:40:38;;;;;;;14.30;13.90;;;22.30;69.00;;;;;;5022918;28;20873;-55
2021/12/31 12:43:09;;;;;;;14.53;14.13;;;22.30;70.90;;;;;;5022716;28;21076;-56
2021/12/31 12:45:39;;;;;;;14.10;13.70;;;22.20;69.90;;;;;;5030266;28;20457;-52
2021/12/31 12:48:08;;;;;;;14.90;14.50;;;22.30;70.70;;;;;;5026445;28;20453;-58
2021/12/31 12:50:35;;;;;;;14.27;13.77;;;22.60;70.00;;;;;;5022919;28;20500;-60
2021/12/31 12:53:03;;;;;;;13.47;13.00;;;22.80;69.10;;;;;;5022601;28;20457;-61
2021/12/31 12:55:30;;;;;;;13.80;13.40;;;22.80;69.60;;;;;;5022736;28;20498;-61
2021/12/31 12:57:59;;;;;;;13.57;12.97;;;22.60;68.30;;;;;;5036335;28;20448;-61
2021/12/31 13:00:38;;;;;;;13.33;13.00;;;22.70;68.30;;;;;;5033208;28;20476;-60
2021/12/31 13:03:08;;;;;;;14.10;13.60;;;23.50;67.70;;;;;;5022309;28;20464;-62
2021/12/31 13:05:35;;;;;;;13.90;13.40;;;23.30;66.90;;;;;;5022261;28;20456;-60
2021/12/31 13:08:03;;;;;;;13.13;12.73;;;23.20;65.90;;;;;;5022653;28;20554;-61
2021/12/31 13:10:32;;;;;;;13.40;13.00;;;23.20;65.50;;;;;;5032843;28;20495;-58
2021/12/31 13:13:00;;;;;;;13.27;12.77;;;23.10;66.00;;;;;;5038043;28;20448;-60
2021/12/31 13:15:28;;;;;;;13.27;12.90;;;23.10;65.40;;;;;;5042354;28;20456;-60
2021/12/31 13:18:04;;;;;;;14.37;13.87;;;23.00;65.20;;;;;;5034057;28;20453;-60
2021/12/31 13:20:35;;;;;;;14.70;14.30;;;23.10;67.20;;;;;;5002451;28;20477;-57
2021/12/31 13:23:05;;;;;;;14.33;13.70;;;23.30;66.20;;;;;;5002452;28;20912;-58
2021/12/31 13:25:43;;;;;;;14.97;14.47;;;23.70;65.40;;;;;;5021490;28;20459;-60
2021/12/31 13:28:14;;;;;;;14.50;14.10;;;23.60;64.40;;;;;;5041775;28;20459;-59
2021/12/31 13:30:52;;;;;;;14.87;14.37;;;23.40;64.30;;;;;;5041886;28;20478;-59
2021/12/31 13:33:27;;;;;;;14.27;13.87;;;23.20;65.00;;;;;;5002074;28;20919;-56
2021/12/31 13:36:25;;;;;;;14.17;13.77;;;22.90;65.60;;;;;;5001999;28;20484;-58
2021/12/31 13:39:05;;;;;;;14.30;13.90;;;22.90;67.50;;;;;;5002121;28;20473;-58